aviador You're here:

K2W6 Decoded Metar

CAPT DUKE RGNL in MD, USA
Report Time2017-06-23 22:13:00
UTC Time2017-06-23 22:32:03
Flight Rules vfr VFR
Wind220° at 12 Gusting to 16 kt
W.Rank220° ranks 1
Current wind is above 220° avg. (6.6)
Visibility9999 m
Phenomena:N/A
Clouds:N/A
Expected CloudBase > 3,200 ft AGL from Temp-Dew spread
CeilingNone
Temp30°C (ISA +15)
Dew Point22°C (62% RH)
Heat Index33.2°C
QNH1007 hPa
Density Alt2,448 ft
Elevation144 ft
Report Wrong Elevation
Raw Report
K2W6 232213Z AUTO 22012G16KT 10SM CLR 30/22 A2975 RMK AO1=

Extra information for K2W6:More info

Metar Taf Metar & Taf Last 4 Metars F.Rules Stats Wind Profile Meteogram Temp Stats Airport Information Weather charts Add Link Nearby VenuesMetar ALERT Operation Metar Decoded Social comments

AIRNAV info for K2W6